sensor_id;sensor_type;location;lat;lon;timestamp;pressure;altitude;pressure_sealevel;temperature;humidity
17649;BME280;8943;51.110;-4.158;2022-10-16T00:02:13;100018.84;;;16.45;53.19
17649;BME280;8943;51.110;-4.158;2022-10-16T00:04:46;100018.00;;;16.45;53.70
17649;BME280;8943;51.110;-4.158;2022-10-16T00:07:16;100029.94;;;16.51;53.65
17649;BME280;8943;51.110;-4.158;2022-10-16T00:09:45;100025.03;;;16.54;53.84
17649;BME280;8943;51.110;-4.158;2022-10-16T00:12:19;100038.16;;;16.57;53.75
17649;BME280;8943;51.110;-4.158;2022-10-16T00:14:50;100028.09;;;16.59;53.64
17649;BME280;8943;51.110;-4.158;2022-10-16T00:17:19;100028.22;;;16.58;53.55
17649;BME280;8943;51.110;-4.158;2022-10-16T00:19:52;100031.75;;;16.58;53.61
17649;BME280;8943;51.110;-4.158;2022-10-16T00:22:20;100042.19;;;16.61;53.55
17649;BME280;8943;51.110;-4.158;2022-10-16T00:24:53;100038.84;;;16.59;53.35
17649;BME280;8943;51.110;-4.158;2022-10-16T00:27:21;100042.50;;;16.58;53.56
17649;BME280;8943;51.110;-4.158;2022-10-16T00:29:52;100041.53;;;16.59;53.70
17649;BME280;8943;51.110;-4.158;2022-10-16T00:32:25;100054.31;;;16.65;53.26
17649;BME280;8943;51.110;-4.158;2022-10-16T00:34:59;100058.03;;;16.89;52.90
17649;BME280;8943;51.110;-4.158;2022-10-16T00:37:46;100054.97;;;17.08;51.98
17649;BME280;8943;51.110;-4.158;2022-10-16T00:40:14;100063.97;;;17.32;51.58
17649;BME280;8943;51.110;-4.158;2022-10-16T00:43:33;100051.66;;;17.45;51.43
17649;BME280;8943;51.110;-4.158;2022-10-16T00:46:10;100085.13;;;17.59;51.04
17649;BME280;8943;51.110;-4.158;2022-10-16T00:48:44;100074.63;;;17.72;51.10
17649;BME280;8943;51.110;-4.158;2022-10-16T00:51:23;100080.84;;;17.81;50.94
17649;BME280;8943;51.110;-4.158;2022-10-16T00:53:58;100084.84;;;17.93;50.44
17649;BME280;8943;51.110;-4.158;2022-10-16T00:56:33;100080.81;;;17.89;50.64
17649;BME280;8943;51.110;-4.158;2022-10-16T00:59:07;100081.66;;;17.90;50.77
17649;BME280;8943;51.110;-4.158;2022-10-16T01:01:42;100074.53;;;17.97;50.67
17649;BME280;8943;51.110;-4.158;2022-10-16T01:04:11;100077.59;;;17.94;50.62
17649;BME280;8943;51.110;-4.158;2022-10-16T01:06:50;100077.56;;;18.02;50.42
17649;BME280;8943;51.110;-4.158;2022-10-16T01:09:27;100085.44;;;18.04;50.35
17649;BME280;8943;51.110;-4.158;2022-10-16T01:12:09;100080.75;;;18.06;49.70
17649;BME280;8943;51.110;-4.158;2022-10-16T01:14:48;100090.00;;;18.03;49.90
17649;BME280;8943;51.110;-4.158;2022-10-16T01:17:24;100092.38;;;18.06;49.76
17649;BME280;8943;51.110;-4.158;2022-10-16T01:20:10;100098.09;;;18.03;49.59
17649;BME280;8943;51.110;-4.158;2022-10-16T01:23:04;100107.22;;;18.02;49.65
17649;BME280;8943;51.110;-4.158;2022-10-16T01:28:47;100114.44;;;18.01;49.02
17649;BME280;8943;51.110;-4.158;2022-10-16T01:32:05;100134.50;;;17.99;48.76
17649;BME280;8943;51.110;-4.158;2022-10-16T01:34:57;100117.28;;;18.08;48.50
17649;BME280;8943;51.110;-4.158;2022-10-16T01:37:43;100125.88;;;18.04;48.65
17649;BME280;8943;51.110;-4.158;2022-10-16T01:40:30;100101.63;;;18.04;48.71
17649;BME280;8943;51.110;-4.158;2022-10-16T01:43:22;100102.31;;;18.06;48.12
17649;BME280;8943;51.110;-4.158;2022-10-16T01:49:31;100108.69;;;18.05;47.27
17649;BME280;8943;51.110;-4.158;2022-10-16T01:52:05;100111.22;;;18.06;47.27
17649;BME280;8943;51.110;-4.158;2022-10-16T01:54:42;100111.16;;;18.14;47.62
17649;BME280;8943;51.110;-4.158;2022-10-16T01:57:14;100127.34;;;18.14;47.60
17649;BME280;8943;51.110;-4.158;2022-10-16T02:00:16;100114.38;;;18.18;47.69
17649;BME280;8943;51.110;-4.158;2022-10-16T02:02:51;100116.88;;;18.19;47.67
17649;BME280;8943;51.110;-4.158;2022-10-16T02:05:34;100112.81;;;18.23;48.09
17649;BME280;8943;51.110;-4.158;2022-10-16T02:08:27;100132.72;;;18.22;48.00
17649;BME280;8943;51.110;-4.158;2022-10-16T02:11:02;100151.16;;;18.11;48.13
17649;BME280;8943;51.110;-4.158;2022-10-16T02:14:01;100135.91;;;17.87;48.83
17649;BME280;8943;51.110;-4.158;2022-10-16T02:16:50;100140.47;;;17.70;49.15
17649;BME280;8943;51.110;-4.158;2022-10-16T02:19:28;100154.16;;;17.52;50.28
17649;BME280;8943;51.110;-4.158;2022-10-16T02:22:05;100164.94;;;17.44;50.12
17649;BME280;8943;51.110;-4.158;2022-10-16T02:24:43;100186.81;;;17.41;50.81
17649;BME280;8943;51.110;-4.158;2022-10-16T02:27:24;100186.69;;;17.42;50.60
17649;BME280;8943;51.110;-4.158;2022-10-16T02:29:59;100186.50;;;17.36;50.79
17649;BME280;8943;51.110;-4.158;2022-10-16T02:32:48;100197.28;;;17.28;50.88
17649;BME280;8943;51.110;-4.158;2022-10-16T02:35:22;100201.97;;;17.25;51.32
17649;BME280;8943;51.110;-4.158;2022-10-16T02:37:57;100196.59;;;17.25;51.64
17649;BME280;8943;51.110;-4.158;2022-10-16T02:40:27;100192.06;;;17.26;51.79
17649;BME280;8943;51.110;-4.158;2022-10-16T02:42:56;100219.16;;;17.33;52.08
17649;BME280;8943;51.110;-4.158;2022-10-16T02:45:25;100203.66;;;17.27;52.38
17649;BME280;8943;51.110;-4.158;2022-10-16T02:47:54;100211.09;;;17.24;52.53
17649;BME280;8943;51.110;-4.158;2022-10-16T02:50:22;100226.06;;;17.19;52.28
17649;BME280;8943;51.110;-4.158;2022-10-16T02:52:52;100218.16;;;17.09;52.40
17649;BME280;8943;51.110;-4.158;2022-10-16T02:55:22;100213.44;;;17.03;52.49
17649;BME280;8943;51.110;-4.158;2022-10-16T02:57:51;100221.34;;;17.05;53.14
17649;BME280;8943;51.110;-4.158;2022-10-16T03:00:28;100215.78;;;17.06;52.91
17649;BME280;8943;51.110;-4.158;2022-10-16T03:02:57;100218.47;;;17.06;53.17
17649;BME280;8943;51.110;-4.158;2022-10-16T03:05:28;100213.75;;;17.16;53.04
17649;BME280;8943;51.110;-4.158;2022-10-16T03:07:57;100224.38;;;17.26;52.27
17649;BME280;8943;51.110;-4.158;2022-10-16T03:10:34;100228.22;;;17.15;51.95
17649;BME280;8943;51.110;-4.158;2022-10-16T03:13:09;100216.13;;;17.19;51.81
17649;BME280;8943;51.110;-4.158;2022-10-16T03:15:52;100216.81;;;17.13;51.85
17649;BME280;8943;51.110;-4.158;2022-10-16T03:18:23;100230.25;;;17.05;51.92
17649;BME280;8943;51.110;-4.158;2022-10-16T03:20:51;100225.84;;;16.96;52.08
17649;BME280;8943;51.110;-4.158;2022-10-16T03:23:27;100235.63;;;16.97;52.11
17649;BME280;8943;51.110;-4.158;2022-10-16T03:26:00;100232.56;;;16.92;52.56
17649;BME280;8943;51.110;-4.158;2022-10-16T03:28:30;100231.22;;;16.88;52.71
17649;BME280;8943;51.110;-4.158;2022-10-16T03:31:11;100235.28;;;16.84;53.17
17649;BME280;8943;51.110;-4.158;2022-10-16T03:33:40;100237.28;;;16.82;53.25
17649;BME280;8943;51.110;-4.158;2022-10-16T03:36:14;100247.88;;;16.91;53.20
17649;BME280;8943;51.110;-4.158;2022-10-16T03:38:47;100256.97;;;16.90;53.34
17649;BME280;8943;51.110;-4.158;2022-10-16T03:41:21;100246.38;;;16.89;53.11
17649;BME280;8943;51.110;-4.158;2022-10-16T03:43:50;100254.97;;;17.01;52.74
17649;BME280;8943;51.110;-4.158;2022-10-16T03:46:21;100258.19;;;17.04;52.41
17649;BME280;8943;51.110;-4.158;2022-10-16T03:48:50;100258.88;;;17.14;51.78
17649;BME280;8943;51.110;-4.158;2022-10-16T03:51:29;100256.50;;;17.19;51.87
17649;BME280;8943;51.110;-4.158;2022-10-16T03:54:00;100266.09;;;17.30;51.70
17649;BME280;8943;51.110;-4.158;2022-10-16T03:56:34;100262.59;;;17.38;51.62
17649;BME280;8943;51.110;-4.158;2022-10-16T03:59:12;100273.34;;;17.46;51.24
17649;BME280;8943;51.110;-4.158;2022-10-16T04:02:06;100265.28;;;17.54;51.15
17649;BME280;8943;51.110;-4.158;2022-10-16T04:04:55;100265.75;;;17.66;50.96
17649;BME280;8943;51.110;-4.158;2022-10-16T04:07:30;100271.66;;;17.69;50.51
17649;BME280;8943;51.110;-4.158;2022-10-16T04:10:04;100286.81;;;17.70;50.44
17649;BME280;8943;51.110;-4.158;2022-10-16T04:12:42;100291.03;;;17.65;50.92
17649;BME280;8943;51.110;-4.158;2022-10-16T04:15:13;100304.31;;;17.25;52.18
17649;BME280;8943;51.110;-4.158;2022-10-16T04:17:42;100309.56;;;16.77;53.87
17649;BME280;8943;51.110;-4.158;2022-10-16T04:20:11;100299.97;;;16.40;54.55
17649;BME280;8943;51.110;-4.158;2022-10-16T04:22:39;100297.31;;;16.14;55.32
17649;BME280;8943;51.110;-4.158;2022-10-16T04:25:11;100299.53;;;15.92;55.90
17649;BME280;8943;51.110;-4.158;2022-10-16T04:27:41;100295.09;;;15.83;56.14
17649;BME280;8943;51.110;-4.158;2022-10-16T04:30:12;100297.88;;;15.74;56.47
17649;BME280;8943;51.110;-4.158;2022-10-16T04:32:40;100289.44;;;15.68;57.01
17649;BME280;8943;51.110;-4.158;2022-10-16T05:14:19;100335.47;;;15.74;57.59
17649;BME280;8943;51.110;-4.158;2022-10-16T05:16:48;100339.00;;;15.74;57.46
17649;BME280;8943;51.110;-4.158;2022-10-16T05:19:18;100349.06;;;15.72;57.50
17649;BME280;8943;51.110;-4.158;2022-10-16T05:21:55;100348.25;;;15.72;57.40
17649;BME280;8943;51.110;-4.158;2022-10-16T05:24:30;100344.16;;;15.67;57.47
17649;BME280;8943;51.110;-4.158;2022-10-16T05:27:02;100351.22;;;15.68;57.54
17649;BME280;8943;51.110;-4.158;2022-10-16T05:29:36;100354.91;;;15.67;57.34
17649;BME280;8943;51.110;-4.158;2022-10-16T05:32:04;100353.91;;;15.68;57.70
17649;BME280;8943;51.110;-4.158;2022-10-16T05:34:33;100345.69;;;15.70;57.85
17649;BME280;8943;51.110;-4.158;2022-10-16T05:37:01;100350.38;;;15.68;57.51
17649;BME280;8943;51.110;-4.158;2022-10-16T05:39:30;100341.47;;;15.67;57.91
17649;BME280;8943;51.110;-4.158;2022-10-16T05:41:59;100354.91;;;15.67;57.81
17649;BME280;8943;51.110;-4.158;2022-10-16T05:44:27;100360.56;;;15.64;57.76
17649;BME280;8943;51.110;-4.158;2022-10-16T05:46:57;100356.34;;;15.62;57.79
17649;BME280;8943;51.110;-4.158;2022-10-16T05:49:27;100357.47;;;15.59;57.49
17649;BME280;8943;51.110;-4.158;2022-10-16T05:51:55;100361.47;;;15.55;57.65
17649;BME280;8943;51.110;-4.158;2022-10-16T05:54:26;100360.41;;;15.48;57.47
17649;BME280;8943;51.110;-4.158;2022-10-16T05:56:55;100376.13;;;15.43;57.67
17649;BME280;8943;51.110;-4.158;2022-10-16T05:59:23;100377.59;;;15.37;57.41
17649;BME280;8943;51.110;-4.158;2022-10-16T06:01:53;100386.22;;;15.31;57.74
17649;BME280;8943;51.110;-4.158;2022-10-16T06:04:22;100386.53;;;15.28;57.94
17649;BME280;8943;51.110;-4.158;2022-10-16T06:06:51;100393.88;;;15.26;57.95
17649;BME280;8943;51.110;-4.158;2022-10-16T06:09:22;100393.22;;;15.24;57.82
17649;BME280;8943;51.110;-4.158;2022-10-16T06:11:50;100391.53;;;15.23;58.00
17649;BME280;8943;51.110;-4.158;2022-10-16T06:14:19;100391.66;;;15.22;58.12
17649;BME280;8943;51.110;-4.158;2022-10-16T06:16:47;100403.38;;;15.20;58.14
17649;BME280;8943;51.110;-4.158;2022-10-16T06:19:16;100407.09;;;15.19;58.28
17649;BME280;8943;51.110;-4.158;2022-10-16T06:21:48;100408.75;;;15.20;58.31
17649;BME280;8943;51.110;-4.158;2022-10-16T06:24:16;100406.91;;;15.21;58.45
17649;BME280;8943;51.110;-4.158;2022-10-16T06:27:11;100410.44;;;15.22;58.53
17649;BME280;8943;51.110;-4.158;2022-10-16T06:30:24;100416.53;;;15.24;58.42
17649;BME280;8943;51.110;-4.158;2022-10-16T06:33:52;100421.88;;;15.24;57.85
17649;BME280;8943;51.110;-4.158;2022-10-16T07:07:23;100460.31;;;14.87;58.45
17649;BME280;8943;51.110;-4.158;2022-10-16T07:10:15;100465.84;;;14.85;58.45
17649;BME280;8943;51.110;-4.158;2022-10-16T07:13:00;100471.38;;;14.84;58.52
17649;BME280;8943;51.110;-4.158;2022-10-16T07:33:27;100501.44;;;14.78;58.84
17649;BME280;8943;51.110;-4.158;2022-10-16T07:35:59;100506.22;;;14.84;58.97
17649;BME280;8943;51.110;-4.158;2022-10-16T07:38:30;100504.81;;;14.89;59.10
17649;BME280;8943;51.110;-4.158;2022-10-16T07:41:07;100509.72;;;14.94;58.99
17649;BME280;8943;51.110;-4.158;2022-10-16T07:54:31;100515.47;;;15.09;58.88
17649;BME280;8943;51.110;-4.158;2022-10-16T07:57:00;100512.78;;;15.09;59.05
17649;BME280;8943;51.110;-4.158;2022-10-16T07:59:28;100520.84;;;15.09;59.27
17649;BME280;8943;51.110;-4.158;2022-10-16T08:01:58;100514.88;;;15.15;59.21
17649;BME280;8943;51.110;-4.158;2022-10-16T08:04:29;100525.16;;;15.19;59.50
17649;BME280;8943;51.110;-4.158;2022-10-16T08:06:58;100528.25;;;15.25;59.88
17649;BME280;8943;51.110;-4.158;2022-10-16T08:09:26;100527.78;;;15.39;60.22
17649;BME280;8943;51.110;-4.158;2022-10-16T08:11:56;100519.81;;;15.47;60.26
17649;BME280;8943;51.110;-4.158;2022-10-16T08:14:28;100529.91;;;15.63;60.25
17649;BME280;8943;51.110;-4.158;2022-10-16T08:16:56;100532.97;;;15.78;60.32
17649;BME280;8943;51.110;-4.158;2022-10-16T08:19:25;100536.66;;;15.94;60.29
17649;BME280;8943;51.110;-4.158;2022-10-16T08:21:53;100539.66;;;16.09;60.42
17649;BME280;8943;51.110;-4.158;2022-10-16T08:24:21;100541.53;;;16.27;60.42
17649;BME280;8943;51.110;-4.158;2022-10-16T08:26:50;100543.03;;;16.47;60.48
17649;BME280;8943;51.110;-4.158;2022-10-16T08:29:19;100543.88;;;16.65;60.05
17649;BME280;8943;51.110;-4.158;2022-10-16T08:31:48;100530.50;;;16.73;60.31
17649;BME280;8943;51.110;-4.158;2022-10-16T08:34:16;100530.09;;;16.86;59.78
17649;BME280;8943;51.110;-4.158;2022-10-16T08:36:45;100534.53;;;16.95;60.01
17649;BME280;8943;51.110;-4.158;2022-10-16T08:39:15;100526.28;;;16.97;59.79
17649;BME280;8943;51.110;-4.158;2022-10-16T08:42:11;100528.84;;;16.98;59.65
17649;BME280;8943;51.110;-4.158;2022-10-16T08:45:02;100537.75;;;16.99;59.59
17649;BME280;8943;51.110;-4.158;2022-10-16T08:47:45;100541.41;;;16.98;59.60
17649;BME280;8943;51.110;-4.158;2022-10-16T08:50:22;100551.03;;;17.01;59.45
17649;BME280;8943;51.110;-4.158;2022-10-16T08:52:55;100553.06;;;16.98;59.48
17649;BME280;8943;51.110;-4.158;2022-10-16T08:55:33;100544.44;;;16.95;59.56
17649;BME280;8943;51.110;-4.158;2022-10-16T08:58:11;100546.13;;;16.96;59.46
17649;BME280;8943;51.110;-4.158;2022-10-16T09:00:43;100541.38;;;16.90;59.14
17649;BME280;8943;51.110;-4.158;2022-10-16T09:03:28;100550.47;;;16.89;59.38
17649;BME280;8943;51.110;-4.158;2022-10-16T09:06:21;100548.25;;;16.84;59.49
17649;BME280;8943;51.110;-4.158;2022-10-16T09:09:06;100561.53;;;16.86;59.40
17649;BME280;8943;51.110;-4.158;2022-10-16T09:11:45;100558.84;;;16.86;59.42
17649;BME280;8943;51.110;-4.158;2022-10-16T09:14:37;100555.84;;;16.89;59.55
17649;BME280;8943;51.110;-4.158;2022-10-16T09:17:27;100557.38;;;16.91;59.42
17649;BME280;8943;51.110;-4.158;2022-10-16T09:20:12;100559.50;;;16.88;59.21
17649;BME280;8943;51.110;-4.158;2022-10-16T09:22:41;100558.16;;;16.84;59.21
17649;BME280;8943;51.110;-4.158;2022-10-16T09:25:13;100564.41;;;16.84;59.15
17649;BME280;8943;51.110;-4.158;2022-10-16T09:27:53;100564.41;;;16.84;59.06
17649;BME280;8943;51.110;-4.158;2022-10-16T09:30:28;100557.28;;;16.83;59.34
17649;BME280;8943;51.110;-4.158;2022-10-16T09:32:58;100569.59;;;16.86;59.50
17649;BME280;8943;51.110;-4.158;2022-10-16T09:35:31;100573.97;;;16.87;59.54
17649;BME280;8943;51.110;-4.158;2022-10-16T09:38:01;100561.38;;;16.87;59.34
17649;BME280;8943;51.110;-4.158;2022-10-16T09:40:31;100574.34;;;16.92;59.45
17649;BME280;8943;51.110;-4.158;2022-10-16T09:43:21;100577.41;;;16.97;59.35
17649;BME280;8943;51.110;-4.158;2022-10-16T09:45:56;100562.16;;;17.06;59.88
17649;BME280;8943;51.110;-4.158;2022-10-16T09:48:29;100551.94;;;17.09;59.96
17649;BME280;8943;51.110;-4.158;2022-10-16T09:51:00;100548.78;;;17.22;60.07
17649;BME280;8943;51.110;-4.158;2022-10-16T09:53:40;100551.06;;;17.35;60.19
17649;BME280;8943;51.110;-4.158;2022-10-16T09:56:11;100546.22;;;17.46;60.66
17649;BME280;8943;51.110;-4.158;2022-10-16T09:58:48;100542.59;;;17.64;60.23
17649;BME280;8943;51.110;-4.158;2022-10-16T10:01:17;100540.81;;;17.81;59.94
17649;BME280;8943;51.110;-4.158;2022-10-16T10:03:50;100534.44;;;17.90;59.98
17649;BME280;8943;51.110;-4.158;2022-10-16T10:06:29;100532.13;;;18.03;59.91
17649;BME280;8943;51.110;-4.158;2022-10-16T10:09:00;100527.25;;;18.15;59.96
17649;BME280;8943;51.110;-4.158;2022-10-16T10:11:51;100521.69;;;18.24;59.84
17649;BME280;8943;51.110;-4.158;2022-10-16T10:14:26;100526.78;;;18.36;59.91
17649;BME280;8943;51.110;-4.158;2022-10-16T10:17:09;100523.41;;;18.42;60.06
17649;BME280;8943;51.110;-4.158;2022-10-16T10:19:44;100521.38;;;18.52;59.82
17649;BME280;8943;51.110;-4.158;2022-10-16T10:22:22;100525.75;;;18.53;59.88
17649;BME280;8943;51.110;-4.158;2022-10-16T10:24:56;100521.38;;;18.60;59.76
17649;BME280;8943;51.110;-4.158;2022-10-16T10:27:32;100518.31;;;18.63;59.70
17649;BME280;8943;51.110;-4.158;2022-10-16T10:30:13;100508.22;;;18.65;59.60
17649;BME280;8943;51.110;-4.158;2022-10-16T10:32:50;100509.59;;;18.69;59.72
17649;BME280;8943;51.110;-4.158;2022-10-16T10:35:30;100512.44;;;18.76;59.66
17649;BME280;8943;51.110;-4.158;2022-10-16T10:38:16;100514.81;;;18.79;59.68
17649;BME280;8943;51.110;-4.158;2022-10-16T10:40:52;100505.00;;;18.86;59.37
17649;BME280;8943;51.110;-4.158;2022-10-16T10:43:39;100511.06;;;18.88;59.75
17649;BME280;8943;51.110;-4.158;2022-10-16T10:46:16;100508.53;;;18.95;59.63
17649;BME280;8943;51.110;-4.158;2022-10-16T10:52:30;100501.25;;;19.03;59.22
17649;BME280;8943;51.110;-4.158;2022-10-16T10:55:10;100499.34;;;19.12;59.37
17649;BME280;8943;51.110;-4.158;2022-10-16T11:00:38;100510.47;;;19.25;59.16
17649;BME280;8943;51.110;-4.158;2022-10-16T11:03:23;100501.00;;;19.29;58.96
17649;BME280;8943;51.110;-4.158;2022-10-16T11:05:56;100506.06;;;19.33;58.79
17649;BME280;8943;51.110;-4.158;2022-10-16T11:08:32;100494.38;;;19.40;58.71
17649;BME280;8943;51.110;-4.158;2022-10-16T11:11:08;100491.47;;;19.42;58.03
17649;BME280;8943;51.110;-4.158;2022-10-16T11:13:43;100498.22;;;19.46;57.69
17649;BME280;8943;51.110;-4.158;2022-10-16T11:16:19;100492.47;;;19.49;57.75
17649;BME280;8943;51.110;-4.158;2022-10-16T11:18:55;100490.09;;;19.54;57.41
17649;BME280;8943;51.110;-4.158;2022-10-16T11:21:26;100486.34;;;19.55;57.08
17649;BME280;8943;51.110;-4.158;2022-10-16T11:24:01;100493.28;;;19.58;56.97
17649;BME280;8943;51.110;-4.158;2022-10-16T11:26:34;100480.13;;;19.63;56.40
17649;BME280;8943;51.110;-4.158;2022-10-16T11:29:05;100491.56;;;19.65;55.95
17649;BME280;8943;51.110;-4.158;2022-10-16T11:31:45;100481.75;;;19.72;55.26
17649;BME280;8943;51.110;-4.158;2022-10-16T11:34:19;100478.88;;;19.73;54.93
17649;BME280;8943;51.110;-4.158;2022-10-16T11:36:53;100487.09;;;19.80;54.09
17649;BME280;8943;51.110;-4.158;2022-10-16T11:39:27;100483.84;;;19.85;54.04
17649;BME280;8943;51.110;-4.158;2022-10-16T11:42:02;100482.78;;;19.94;54.34
17649;BME280;8943;51.110;-4.158;2022-10-16T11:44:42;100480.69;;;20.04;54.37
17649;BME280;8943;51.110;-4.158;2022-10-16T11:47:28;100477.84;;;20.20;54.66
17649;BME280;8943;51.110;-4.158;2022-10-16T11:50:48;100473.34;;;20.36;54.44
17649;BME280;8943;51.110;-4.158;2022-10-16T11:53:45;100460.03;;;20.49;54.31
17649;BME280;8943;51.110;-4.158;2022-10-16T11:56:22;100461.28;;;20.61;54.61
17649;BME280;8943;51.110;-4.158;2022-10-16T12:02:33;100457.63;;;20.69;52.89
17649;BME280;8943;51.110;-4.158;2022-10-16T12:05:54;100447.69;;;20.84;53.50
17649;BME280;8943;51.110;-4.158;2022-10-16T12:08:25;100453.00;;;21.07;53.81
17649;BME280;8943;51.110;-4.158;2022-10-16T12:11:32;100455.44;;;21.31;53.47
17649;BME280;8943;51.110;-4.158;2022-10-16T12:14:21;100440.44;;;21.50;53.20
17649;BME280;8943;51.110;-4.158;2022-10-16T12:17:03;100446.16;;;21.77;53.34
17649;BME280;8943;51.110;-4.158;2022-10-16T12:19:34;100443.25;;;22.00;53.20
17649;BME280;8943;51.110;-4.158;2022-10-16T12:22:17;100432.19;;;22.16;52.71
17649;BME280;8943;51.110;-4.158;2022-10-16T12:24:55;100428.13;;;22.33;52.55
17649;BME280;8943;51.110;-4.158;2022-10-16T12:27:28;100426.75;;;22.44;51.98
17649;BME280;8943;51.110;-4.158;2022-10-16T12:30:21;100411.56;;;22.50;51.62
17649;BME280;8943;51.110;-4.158;2022-10-16T12:33:17;100409.53;;;22.58;51.37
17649;BME280;8943;51.110;-4.158;2022-10-16T12:36:01;100404.53;;;22.62;50.97
17649;BME280;8943;51.110;-4.158;2022-10-16T12:38:46;100412.91;;;22.60;50.17
17649;BME280;8943;51.110;-4.158;2022-10-16T13:57:14;100298.31;;;24.06;45.53
17649;BME280;8943;51.110;-4.158;2022-10-16T13:59:54;100310.44;;;24.23;45.77
17649;BME280;8943;51.110;-4.158;2022-10-16T14:02:40;100300.19;;;24.12;45.96
17649;BME280;8943;51.110;-4.158;2022-10-16T14:05:20;100309.59;;;24.43;45.24
17649;BME280;8943;51.110;-4.158;2022-10-16T14:07:53;100291.56;;;24.48;45.20
17649;BME280;8943;51.110;-4.158;2022-10-16T14:10:40;100301.97;;;24.71;43.69
17649;BME280;8943;51.110;-4.158;2022-10-16T14:13:30;100292.31;;;24.69;43.06
17649;BME280;8943;51.110;-4.158;2022-10-16T14:21:18;100288.94;;;24.73;43.27
17649;BME280;8943;51.110;-4.158;2022-10-16T14:27:31;100279.22;;;24.46;42.26
17649;BME280;8943;51.110;-4.158;2022-10-16T14:45:07;100231.44;;;25.51;43.51
17649;BME280;8943;51.110;-4.158;2022-10-16T14:48:21;100229.50;;;26.27;42.81
17649;BME280;8943;51.110;-4.158;2022-10-16T14:51:09;100212.72;;;26.90;42.57
17649;BME280;8943;51.110;-4.158;2022-10-16T14:53:44;100208.59;;;27.41;41.37
17649;BME280;8943;51.110;-4.158;2022-10-16T14:56:17;100204.72;;;27.84;40.56
17649;BME280;8943;51.110;-4.158;2022-10-16T14:58:48;100208.75;;;28.16;39.52
17649;BME280;8943;51.110;-4.158;2022-10-16T15:01:20;100195.09;;;28.45;38.71
17649;BME280;8943;51.110;-4.158;2022-10-16T15:03:50;100186.13;;;28.61;37.16
17649;BME280;8943;51.110;-4.158;2022-10-16T15:06:25;100178.38;;;28.58;35.94
17649;BME280;8943;51.110;-4.158;2022-10-16T15:08:59;100173.63;;;28.02;35.53
17649;BME280;8943;51.110;-4.158;2022-10-16T15:11:27;100156.84;;;27.39;35.97
17649;BME280;8943;51.110;-4.158;2022-10-16T15:14:04;100163.19;;;26.68;36.38
17649;BME280;8943;51.110;-4.158;2022-10-16T15:16:35;100151.97;;;26.09;36.97
17649;BME280;8943;51.110;-4.158;2022-10-16T15:19:04;100149.56;;;25.58;37.27
17649;BME280;8943;51.110;-4.158;2022-10-16T15:21:33;100147.69;;;25.02;38.07
17649;BME280;8943;51.110;-4.158;2022-10-16T15:24:01;100159.53;;;24.57;38.76
17649;BME280;8943;51.110;-4.158;2022-10-16T15:26:30;100148.38;;;24.21;39.18
17649;BME280;8943;51.110;-4.158;2022-10-16T15:29:01;100143.88;;;23.81;39.92
17649;BME280;8943;51.110;-4.158;2022-10-16T15:31:31;100137.22;;;23.51;40.19
17649;BME280;8943;51.110;-4.158;2022-10-16T15:34:08;100133.06;;;23.28;40.84
17649;BME280;8943;51.110;-4.158;2022-10-16T15:36:46;100120.13;;;23.24;41.69
17649;BME280;8943;51.110;-4.158;2022-10-16T15:39:17;100094.78;;;23.43;42.26
17649;BME280;8943;51.110;-4.158;2022-10-16T15:41:47;100079.47;;;23.55;42.31
17649;BME280;8943;51.110;-4.158;2022-10-16T15:44:18;100092.22;;;23.61;42.06
17649;BME280;8943;51.110;-4.158;2022-10-16T15:46:49;100074.00;;;23.75;42.04
17649;BME280;8943;51.110;-4.158;2022-10-16T15:49:19;100074.38;;;23.85;42.31
17649;BME280;8943;51.110;-4.158;2022-10-16T15:51:48;100074.00;;;23.82;42.09
17649;BME280;8943;51.110;-4.158;2022-10-16T15:54:22;100069.44;;;23.69;41.79
17649;BME280;8943;51.110;-4.158;2022-10-16T15:56:51;100062.75;;;23.52;42.10
17649;BME280;8943;51.110;-4.158;2022-10-16T15:59:24;100053.19;;;23.29;42.21
17649;BME280;8943;51.110;-4.158;2022-10-16T16:02:14;100050.28;;;23.11;42.42
17649;BME280;8943;51.110;-4.158;2022-10-16T16:04:46;100033.53;;;22.87;42.80
17649;BME280;8943;51.110;-4.158;2022-10-16T16:07:18;100039.81;;;22.68;42.99
17649;BME280;8943;51.110;-4.158;2022-10-16T16:10:02;100026.44;;;22.47;43.29
17649;BME280;8943;51.110;-4.158;2022-10-16T16:12:34;100013.91;;;22.32;43.32
17649;BME280;8943;51.110;-4.158;2022-10-16T16:15:36;100011.59;;;22.16;43.99
17649;BME280;8943;51.110;-4.158;2022-10-16T16:18:31;100023.41;;;22.02;44.09
17649;BME280;8943;51.110;-4.158;2022-10-16T16:21:10;100005.22;;;21.89;44.47
17649;BME280;8943;51.110;-4.158;2022-10-16T16:24:07;100014.53;;;21.73;45.16
17649;BME280;8943;51.110;-4.158;2022-10-16T16:26:40;100000.31;;;21.58;44.99
17649;BME280;8943;51.110;-4.158;2022-10-16T16:29:14;100015.66;;;21.44;45.52
17649;BME280;8943;51.110;-4.158;2022-10-16T16:32:05;100010.22;;;21.38;45.50
17649;BME280;8943;51.110;-4.158;2022-10-16T16:34:35;100006.41;;;21.32;45.72
17649;BME280;8943;51.110;-4.158;2022-10-16T16:37:05;100005.28;;;21.20;46.00
17649;BME280;8943;51.110;-4.158;2022-10-16T16:39:44;99998.78;;;21.14;46.22
17649;BME280;8943;51.110;-4.158;2022-10-16T16:42:16;99986.03;;;21.08;46.60
17649;BME280;8943;51.110;-4.158;2022-10-16T16:44:47;100000.78;;;20.99;46.51
17649;BME280;8943;51.110;-4.158;2022-10-16T16:47:34;99995.91;;;20.88;46.56
17649;BME280;8943;51.110;-4.158;2022-10-16T16:50:20;100001.84;;;20.76;47.09
17649;BME280;8943;51.110;-4.158;2022-10-16T16:52:59;100000.31;;;20.67;47.03
17649;BME280;8943;51.110;-4.158;2022-10-16T16:55:32;99974.25;;;20.60;47.29
17649;BME280;8943;51.110;-4.158;2022-10-16T16:58:20;99977.94;;;20.52;47.41
17649;BME280;8943;51.110;-4.158;2022-10-16T17:01:09;99978.03;;;20.44;48.00
17649;BME280;8943;51.110;-4.158;2022-10-16T17:03:46;99965.03;;;20.32;48.03
17649;BME280;8943;51.110;-4.158;2022-10-16T17:06:18;99967.75;;;20.32;48.27
17649;BME280;8943;51.110;-4.158;2022-10-16T17:09:44;99944.75;;;20.22;48.42
17649;BME280;8943;51.110;-4.158;2022-10-16T17:12:36;99960.53;;;20.18;48.79
17649;BME280;8943;51.110;-4.158;2022-10-16T17:15:05;99964.66;;;20.14;49.08
17649;BME280;8943;51.110;-4.158;2022-10-16T17:17:34;99962.94;;;20.06;49.44